ADDS METAR Data INFO
IDs: Format: Raw Decoded Include TAF

Data at: 0839 UTC 27 Jun 2017

KAUS 270753Z 00000KT 7SM -RA FEW019 SCT043 BKN120 24/24 A3001 RMK AO2 SLP152 P0001 T02440244 $
KAUS 270653Z 12003KT 8SM -RA OVC150 24/24 A3002 RMK AO2 RAE04B35 SLP155 P0000 T02440244 $
KAUS 270553Z 00000KT 9SM -RA SCT120 BKN150 24/24 A3003 RMK AO2 RAB48 SLP158 P0000 60026 T02440244 10322 20244 403390233 50001 $
KAUS 270453Z 34003KT 8SM SCT080 SCT120 BKN150 24/05 A3004 RMK AO2 RAB43E45 SLP162 P0000 T02440050
KAUS 270353Z 00000KT 10SM OVC150 24/05 A3002 RMK AO2 RAE29 SLP156 P0001 T02440050
KAUS 270253Z 00000KT 6SM -RA BR FEW050 BKN100 OVC200 24/24 A3003 RMK AO2 LTG DSNT N AND NW TSE22 SLP158 TS MOV N P0007 60025 T02440239 51021
KAUS 270227Z 24004KT 7SM -RA FEW050 OVC110 24/23 A3003 RMK AO2 LTG DSNT N TSE22 FRQ LTG DSNT N TS MOV N P0004 T02440233
KAUS 270153Z 22006KT 5SM -TSRA BR BKN050CB BKN090 OVC110 24/23 A3002 RMK AO2 LTG DSNT N AND NW RAB06 TSB11 SLP158 FRQ LTGICCCCG W-N TS W-N MOV N P0018 T02440233
KAUS 270113Z 15017G23KT 10SM -TSRA SCT028 BKN046CB BKN060 OVC250 29/22 A2999 RMK AO2 LTG DSNT S RAB06 TSB11 FRQ LTGICCG SW TS SW MOV N P0000 T02890222
KAUS 270053Z 12010KT 10SM SCT049 BKN055 BKN070 BKN250 29/22 A2998 RMK AO2 LTG DSNT SW SLP141 SHRA DSNT W T02940217
KAUS 262353Z 09007KT 10SM SCT050 SCT065 SCT110 BKN250 32/21 A2996 RMK AO2 SLP135 T03220206 10339 20294 56013
KAUS 262253Z 07005KT 10SM SCT050 SCT110 BKN250 33/19 A2997 RMK AO2 SLP135 T03280194
KAUS 262153Z 07006KT 10SM SCT049 SCT100 BKN250 33/20 A2998 RMK AO2 SLP141 T03280200
KAUS 262053Z 07005KT 10SM SCT048 BKN100 BKN300 33/21 A3000 RMK AO2 SLP148 T03280206 58027
KAUS 261953Z 00000KT 10SM SCT040 BKN085 BKN300 31/21 A3003 RMK AO2 SLP159 T03110211
KAUS 261853Z 15004KT 10SM SCT035 BKN085 BKN300 29/22 A3006 RMK AO2 SLP168 T02940217
KAUS 261753Z VRB03KT 10SM SCT028 BKN065 BKN300 29/22 A3009 RMK AO2 RAE11 SLP177 P0000 60000 T02940222 10300 20233 58015
KAUS 261744Z 06004KT 10SM SCT028 BKN065 BKN300 29/22 A3009 RMK AO2 RAE11 P0000 T02940222
KAUS 261711Z 03003KT 10SM BKN025 BKN070 BKN300 29/22 A3010 RMK AO2 RAE11 P0000 T02890222
KAUS 261653Z 00000KT 10SM -RA SCT025 BKN031 BKN070 29/22 A3011 RMK AO2 RAB50 SLP184 P0000 T02890222
KAUS 261553Z VRB03KT 10SM SCT016 BKN025 BKN049 BKN300 28/23 A3012 RMK AO2 SLP188 T02830233
KAUS 261453Z VRB04KT 10SM SCT014 BKN021 BKN048 BKN300 27/23 A3013 RMK AO2 SLP192 T02670233 50012
KAUS 261431Z 08003KT 10SM FEW010 SCT020 BKN200 BKN300 27/23 A3013 RMK AO2 T02670233
KAUS 261353Z 07006KT 10SM SCT010 BKN017 BKN200 26/23 A3014 RMK AO2 SLP195 T02560228
KAUS 261335Z 06005KT 10SM SCT007 BKN017 BKN200 25/23 A3013 RMK AO2 T02500233
KAUS 261253Z 05007KT 10SM OVC008 24/23 A3011 RMK AO2 SLP187 T02390228
KAUS 261228Z 06004KT 9SM BKN010 OVC048 24/23 A3010 RMK AO2 T02390228
KAUS 261153Z 00000KT 10SM FEW015 SCT050 BKN120 23/22 A3009 RMK AO2 SLP180 60017 70017 T02330222 10244 20233 56007
KAUS 261053Z 11003KT 10SM FEW015 SCT043 BKN100 24/23 A3010 RMK AO2 SLP180 T02390228
KAUS 260953Z 02008KT 10SM SCT014 BKN043 OVC100 24/23 A3011 RMK AO2 LTG DSNT NE SLP186 T02390228
KAUS 260853Z 01004KT 10SM SCT017 SCT028 BKN090 24/23 A3012 RMK AO2 LTG DSNT NE SLP187 60017 T02390228 58000
KAUS 260753Z 33003KT 9SM BKN017 BKN024 OVC075 23/23 A3012 RMK AO2 RAE45 SLP188 P0009 T02330228
KAUS 260748Z 00000KT 9SM BKN017 BKN024 OVC070 23/23 A3012 RMK AO2 RAE45 P0009
KAUS 260653Z 00000KT 3SM +RA BR SCT026 BKN050 OVC060 23/22 A3012 RMK AO2 RAB45 SLP188 P0008 T02330222
KAUS 260647Z 11007KT 2 1/2SM +RA BR SCT026 BKN050 OVC060 24/23 A3012 RMK AO2 RAB45 P0003
KAUS 260553Z 00000KT 10SM BKN023 BKN032 OVC080 24/23 A3011 RMK AO2 SLP187 60000 T02440228 10272 20244 403220239 50007
KAUS 260453Z 07004KT 10SM SCT047 OVC065 25/23 A3013 RMK AO2 SLP190 T02500228
KAUS 260353Z 00000KT 10SM BKN050 25/22 A3011 RMK AO2 SLP186 T02500222
KAUS 260253Z 12005KT 10SM SCT050 SCT060 26/23 A3009 RMK AO2 SLP180 60000 T02610228 53008
KAUS 260153Z 09007KT 10SM FEW055 SCT120 SCT250 27/23 A3007 RMK AO2 SLP173 CB DSIPTD T02670228
KAUS 260053Z 20004KT 10SM SCT055CB SCT120 BKN250 27/22 A3007 RMK AO2 WSHFT 0020 RAB27E50 SLP172 CB SE MOV W AND TCU SE P0000 T02670222
KAUS 260040Z 18010KT 10SM -RA SCT055TCU SCT120 BKN250 26/22 A3007 RMK AO2 WSHFT 0020 RAB27 TCU ALQDS P0000 T02610217
KAUS 260015Z 06009KT 10SM SCT055TCU SCT120 BKN250 31/21 A3007 RMK AO2 TCU ALQDS T03060211
KAUS 252353Z 07007KT 10SM SCT044TCU SCT120 SCT250 31/21 A3007 RMK AO2 SLP172 TCU SE T03110211 10322 20300 55011
KAUS 252253Z 05006KT 10SM FEW044 FEW120 SCT250 31/21 A3007 RMK AO2 SLP171 T03110211
KAUS 252153Z 04008G17KT 10SM FEW040 FEW100 FEW120 SCT250 32/21 A3008 RMK AO2 SLP173 T03170206
KAUS 252053Z 07006KT 10SM FEW035 SCT100 BKN250 30/20 A3010 RMK AO2 SLP183 CB DSNT SW AND NW MOV SW T03000200 58012


Page loaded:  08:39 UTC  |   01:39 AM Pacific  |   02:39 AM Mountain  |   03:39 AM Central  |   04:39 AM Eastern

 

ADVISORIES

FORECASTS

FORECASTS

OBSERVATIONS

USER TOOLS

ABOUT US